KPWD/PWD METAR and TAF weather

Enter ICAO airport designator
Station Type Date Time Source
KPWD METAR 2021/10/20 06:55 UTC NOAA

KPWD 200655Z AUTO 06009KT 10SM CLR M05/M07 A3034 RMK A01


Station Type Date Time Source
KPWD Decoded METAR 2021/10/20 06:55 UTC NOAA

Station name not available
Oct 20, 2021 - 02:55 AM EDT / 2021.10.20 0655 UTC
Wind: from the ENE (060 degrees) at 10 MPH (9 KT):0
Visibility: 10 mile(s):0
Sky conditions: clear
Temperature: 23 F (-5 C)
Windchill: 12 F (-11 C):1
Dew Point: 19 F (-7 C)
Relative Humidity: 85%
Pressure (altimeter): 30.34 in. Hg (1027 hPa)
ob: KPWD 200655Z AUTO 06009KT 10SM CLR M05/M07 A3034 RMK A01
cycle: 7

Station Type Date Time Source
KPWD TAF UTC NOAA

Error!

Example: see airport list